Banjar Tegakgede, Indonesia

6:12 PM WITA on 六月 23, 2017 (GMT +0800)
Ngurah Rai (Bali) Interna | | Change Station

高度 13 ft 8.75 °S, 115.17 °E | Updated 12 minutes ago

雨
81 °F
体感気温 86 °F
13
風 変数 風 から

今日
高い -- | 低 -- °F
--% 降水確率
昨日
高い -- | 低 -- °F
Precip. -- インチ
気圧 29.80 インチ
視程 6.2 マイル
だいたい曇 1600 ft
体感気温(暑さ) 86 °F
露点温度 75 °F
湿度 84%
降水 0.00 インチ
積雪深 利用不可。
6:34 AM 6:12 PM
二十六夜, 1% visible
METAR WADD 231000Z 10011KT 9999 BKN016 27/24 Q1009 NOSIG
気圧 29.80 インチ
視程 6.2 マイル
だいたい曇 1600 ft
体感気温(暑さ) 86 °F
露点温度 75 °F
湿度 84%
降水 0.00 インチ
積雪深 利用不可。
6:34 AM 6:12 PM
二十六夜, 1% visible
METAR WADD 231000Z 10011KT 9999 BKN016 27/24 Q1009 NOSIG

Get Severe Weather Alerts

Thanks for signing up!

Be on the lookout for a verification email in your inbox.

You'll start receiving the daily forecast at 6 AM.

×

10-Day Weather Forecast

×

Almanac

天文

Jun. 23, 2017 入り
実時間
常用薄明
航海薄明
天文薄明
可視光の長さ
可照時間
Tomorrow will be .
, % of the Moon is Illuminated

今日の極値

Country Highs Country Lows

Community

Category 6

Welcome to Category 6. This is the collective home for Weather Underground's featured writeups by Dr. Jeff Masters (right), Bob Henson (left), Chris Burt, and other regular contributors.

Nearby

空気品質

  空気品質 大気質指数 汚染物質
Not available.

積雪深

Station Depth 高度

地震活動

Distance Mag. Time & Date
Minimum magnitude displayed is 2.5.

沿岸の水温

地名 気温

Stations

最寄りの気象観測所

観測所位置 温度 体感気温(寒さ) 露点温度 湿度 Precip. 高度 更新日時 タイプする